Time;durP1;ratioP1;P1;durP2;ratioP2;P2;SDS_P1;SDS_P2;PMS_P1;PMS_P2;Temp;Humidity;BMP_temperature;BMP_pressure;BME280_temperature;BME280_humidity;BME280_pressure;Samples;Min_cycle;Max_cycle;Signal;HPM_P1;HPM_P2
2021/08/05 00:02:20;;;;;;;11.70;10.47;;;16.20;99.90;;;;;;5119111;27;20179;-67
2021/08/05 00:04:48;;;;;;;12.40;10.23;;;16.30;99.90;;;;;;5118826;28;20184;-67
2021/08/05 00:07:17;;;;;;;11.37;10.17;;;16.30;99.90;;;;;;5118651;28;20213;-66
2021/08/05 00:09:45;;;;;;;11.97;10.87;;;16.30;99.90;;;;;;5121740;27;20227;-67
2021/08/05 00:12:14;;;;;;;13.20;10.97;;;16.20;99.90;;;;;;5122510;28;20183;-67
2021/08/05 00:14:45;;;;;;;11.77;10.40;;;16.20;99.90;;;;;;5122330;27;20342;-67
2021/08/05 00:17:13;;;;;;;14.33;12.20;;;16.20;99.90;;;;;;5102705;28;20178;-67
2021/08/05 00:19:42;;;;;;;12.67;11.30;;;16.20;99.90;;;;;;5123265;27;20182;-67
2021/08/05 00:22:10;;;;;;;12.17;10.87;;;16.20;99.90;;;;;;5126160;27;20220;-67
2021/08/05 00:24:38;;;;;;;11.23;10.17;;;16.20;99.90;;;;;;5121031;28;20187;-67
2021/08/05 00:27:07;;;;;;;13.87;12.33;;;16.20;99.90;;;;;;5120238;28;20229;-67
2021/08/05 00:29:35;;;;;;;13.47;11.33;;;16.20;99.90;;;;;;5124880;27;20191;-67
2021/08/05 00:32:05;;;;;;;14.87;12.67;;;16.20;99.90;;;;;;5121043;28;20262;-67
2021/08/05 00:34:34;;;;;;;13.20;11.90;;;16.20;99.90;;;;;;5119710;27;20176;-67
2021/08/05 00:37:02;;;;;;;13.47;12.07;;;16.20;99.90;;;;;;5124192;27;20180;-67
2021/08/05 00:39:30;;;;;;;14.73;12.10;;;16.20;99.90;;;;;;5120974;27;20333;-67
2021/08/05 00:41:59;;;;;;;15.53;12.70;;;16.20;99.90;;;;;;5127411;27;20419;-67
2021/08/05 00:44:27;;;;;;;17.13;14.00;;;16.20;99.90;;;;;;5121258;27;20427;-67
2021/08/05 00:46:55;;;;;;;16.67;13.13;;;16.20;99.90;;;;;;5123017;28;20203;-67
2021/08/05 00:49:25;;;;;;;13.90;12.50;;;16.20;99.90;;;;;;5119898;27;20175;-67
2021/08/05 00:51:53;;;;;;;16.13;14.17;;;16.20;99.90;;;;;;5134565;27;20171;-67
2021/08/05 00:54:22;;;;;;;19.43;16.57;;;16.20;99.90;;;;;;5120306;28;20225;-67
2021/08/05 00:56:50;;;;;;;21.70;17.80;;;16.20;99.90;;;;;;5120173;28;20596;-67
2021/08/05 00:59:18;;;;;;;24.70;18.53;;;16.10;99.90;;;;;;5117278;27;20226;-67
2021/08/05 01:01:51;;;;;;;22.57;18.10;;;16.10;99.90;;;;;;5115773;27;20182;-67
2021/08/05 01:04:19;;;;;;;23.70;18.33;;;16.10;99.90;;;;;;5123217;27;20171;-67
2021/08/05 01:06:59;;;;;;;23.13;18.27;;;16.10;99.90;;;;;;5118979;28;20277;-67
2021/08/05 01:09:42;;;;;;;24.57;18.47;;;16.10;99.90;;;;;;5111992;28;20352;-67
2021/08/05 01:12:17;;;;;;;24.40;18.67;;;16.10;99.90;;;;;;5124178;27;20178;-67
2021/08/05 01:14:57;;;;;;;23.57;18.67;;;16.10;99.90;;;;;;5121145;28;20187;-67
2021/08/05 01:17:27;;;;;;;30.17;22.63;;;16.00;99.90;;;;;;5124603;27;20178;-67
2021/08/05 01:19:57;;;;;;;29.63;23.80;;;16.00;99.90;;;;;;5121520;27;20192;-67
2021/08/05 01:22:31;;;;;;;31.50;23.07;;;16.00;99.90;;;;;;5120741;27;20193;-67
2021/08/05 01:25:05;;;;;;;30.90;23.73;;;16.00;99.90;;;;;;5117466;28;20214;-67
2021/08/05 01:27:36;;;;;;;31.23;22.70;;;16.10;99.90;;;;;;5119056;27;20220;-67
2021/08/05 01:30:06;;;;;;;29.90;23.17;;;16.00;99.90;;;;;;5110444;28;20297;-67
2021/08/05 01:32:36;;;;;;;30.53;23.27;;;16.00;99.90;;;;;;5112541;27;20192;-67
2021/08/05 01:35:06;;;;;;;31.97;22.80;;;16.00;99.90;;;;;;5117217;27;20391;-67
2021/08/05 01:37:36;;;;;;;28.57;21.37;;;16.00;99.90;;;;;;5112417;27;20175;-67
2021/08/05 01:40:06;;;;;;;28.87;21.43;;;16.00;99.90;;;;;;5120355;27;20175;-67
2021/08/05 01:42:37;;;;;;;28.40;21.30;;;16.00;99.90;;;;;;5108627;28;20188;-67
2021/08/05 01:45:07;;;;;;;29.70;20.90;;;15.90;99.90;;;;;;5112518;28;20204;-67
2021/08/05 01:47:36;;;;;;;29.10;21.27;;;15.90;99.90;;;;;;5136798;27;20232;-67
2021/08/05 01:50:07;;;;;;;32.23;23.67;;;15.90;99.90;;;;;;5114287;28;20186;-67
2021/08/05 01:52:36;;;;;;;30.77;23.37;;;15.90;99.90;;;;;;5112673;27;20187;-67
2021/08/05 01:55:05;;;;;;;32.90;23.57;;;15.90;99.90;;;;;;5111360;27;20179;-67
2021/08/05 01:57:35;;;;;;;33.33;24.20;;;15.90;99.90;;;;;;5111919;28;20431;-67
2021/08/05 02:00:05;;;;;;;32.97;23.80;;;15.90;99.90;;;;;;5113373;27;20458;-67
2021/08/05 02:02:34;;;;;;;33.60;24.17;;;15.90;99.90;;;;;;5113920;27;20187;-68
2021/08/05 02:05:06;;;;;;;33.47;24.10;;;15.90;99.90;;;;;;5111171;27;20198;-67
2021/08/05 02:07:40;;;;;;;32.03;23.93;;;15.90;99.90;;;;;;5108276;28;20495;-67
2021/08/05 02:10:17;;;;;;;35.43;25.07;;;15.90;99.90;;;;;;5109709;27;20167;-68
2021/08/05 02:12:50;;;;;;;36.03;24.97;;;15.90;99.90;;;;;;5109236;27;20342;-67
2021/08/05 02:15:32;;;;;;;35.23;25.33;;;15.90;99.90;;;;;;5128761;27;20175;-67
2021/08/05 02:18:00;;;;;;;31.10;22.93;;;15.90;99.90;;;;;;5115985;27;20395;-67
2021/08/05 02:20:29;;;;;;;37.23;25.67;;;15.90;99.90;;;;;;5103140;28;20183;-67
2021/08/05 02:22:58;;;;;;;33.67;25.23;;;15.90;99.90;;;;;;5123755;27;20174;-67
2021/08/05 02:25:27;;;;;;;32.73;23.90;;;16.00;99.90;;;;;;5104204;28;20187;-67
2021/08/05 02:27:57;;;;;;;33.27;24.23;;;16.10;99.90;;;;;;5110348;27;20321;-67
2021/08/05 02:30:26;;;;;;;31.10;23.80;;;16.10;99.90;;;;;;5110125;28;20183;-67
2021/08/05 02:32:55;;;;;;;32.43;24.00;;;16.10;99.90;;;;;;5117252;27;20220;-67
2021/08/05 02:35:24;;;;;;;32.17;24.00;;;16.10;99.90;;;;;;5105490;28;20423;-68
2021/08/05 02:37:52;;;;;;;33.60;23.53;;;16.00;99.90;;;;;;5117204;27;20174;-68
2021/08/05 02:40:22;;;;;;;38.40;26.60;;;16.00;99.90;;;;;;5111332;28;20300;-67
2021/08/05 02:43:33;;;;;;;35.63;25.10;;;15.90;99.90;;;;;;5111107;27;20209;-67
2021/08/05 02:46:06;;;;;;;35.17;25.43;;;15.90;99.90;;;;;;5103983;28;20492;-67
2021/08/05 02:48:37;;;;;;;35.23;25.70;;;15.80;99.90;;;;;;5117633;28;20380;-68
2021/08/05 02:51:07;;;;;;;34.83;24.03;;;15.80;99.90;;;;;;5093328;28;20175;-67
2021/08/05 02:53:36;;;;;;;31.90;22.57;;;15.80;99.90;;;;;;5115235;27;20183;-67
2021/08/05 02:56:04;;;;;;;37.93;26.37;;;15.80;99.90;;;;;;5108594;28;20190;-67
2021/08/05 02:58:34;;;;;;;38.17;25.80;;;15.80;99.90;;;;;;5111472;28;20322;-67
2021/08/05 03:01:02;;;;;;;39.27;24.80;;;15.80;99.90;;;;;;5106334;28;20179;-68
2021/08/05 03:03:31;;;;;;;36.93;25.47;;;15.80;99.90;;;;;;5114851;28;20191;-67
2021/08/05 03:06:00;;;;;;;39.47;25.60;;;15.80;99.90;;;;;;5119233;28;20215;-67
2021/08/05 03:08:28;;;;;;;37.20;24.60;;;15.80;99.90;;;;;;5113956;28;20212;-67
2021/08/05 03:10:56;;;;;;;35.03;25.50;;;15.80;99.90;;;;;;5114283;28;20186;-67
2021/08/05 03:13:25;;;;;;;37.07;25.70;;;15.80;99.90;;;;;;5107606;28;20203;-68
2021/08/05 03:15:54;;;;;;;43.07;27.83;;;15.80;99.90;;;;;;5115134;28;20182;-68
2021/08/05 03:18:22;;;;;;;39.20;27.80;;;15.80;99.90;;;;;;5107568;28;20175;-67
2021/08/05 03:20:51;;;;;;;42.87;29.73;;;15.80;99.90;;;;;;5112160;28;20221;-67
2021/08/05 03:23:20;;;;;;;40.30;27.83;;;15.80;99.90;;;;;;5112092;28;20294;-67
2021/08/05 03:25:48;;;;;;;38.90;27.77;;;15.80;99.90;;;;;;5106286;28;20198;-67
2021/08/05 03:28:16;;;;;;;43.03;28.97;;;15.70;99.90;;;;;;5126903;27;20210;-67
2021/08/05 03:30:45;;;;;;;45.43;29.80;;;15.70;99.90;;;;;;5105944;28;20214;-67
2021/08/05 03:33:14;;;;;;;46.87;30.00;;;15.70;99.90;;;;;;5106308;28;20180;-67
2021/08/05 03:35:42;;;;;;;49.57;31.50;;;15.60;99.90;;;;;;5114974;28;20375;-68
2021/08/05 03:38:11;;;;;;;48.10;31.00;;;15.60;99.90;;;;;;5108363;28;20422;-68
2021/08/05 03:40:40;;;;;;;46.07;30.17;;;15.50;99.90;;;;;;5097988;28;20182;-68
2021/08/05 03:43:09;;;;;;;44.20;29.83;;;15.40;99.90;;;;;;5111614;27;20329;-67
2021/08/05 03:45:44;;;;;;;46.10;31.00;;;15.30;99.90;;;;;;5115514;28;20179;-68
2021/08/05 03:48:22;;;;;;;46.23;30.90;;;15.30;99.90;;;;;;5091963;28;20358;-67
2021/08/05 03:51:31;;;;;;;43.57;28.90;;;15.20;99.90;;;;;;5112443;28;20191;-67
2021/08/05 03:54:00;;;;;;;41.37;28.33;;;15.20;99.90;;;;;;5124142;27;20369;-68
2021/08/05 03:57:04;;;;;;;44.07;28.97;;;15.10;99.90;;;;;;5118574;27;20165;-67
2021/08/05 03:59:34;;;;;;;40.07;27.37;;;15.10;99.90;;;;;;5115487;28;20229;-68
2021/08/05 04:02:06;;;;;;;37.57;25.50;;;15.00;99.90;;;;;;5093903;27;20383;-68
2021/08/05 04:05:06;;;;;;;42.93;27.43;;;14.90;99.90;;;;;;5112064;28;20187;-67
2021/08/05 04:07:34;;;;;;;36.73;25.60;;;14.90;99.90;;;;;;5115084;27;20197;-67
2021/08/05 04:10:44;;;;;;;39.57;27.00;;;14.90;99.90;;;;;;5112119;27;20217;-68
2021/08/05 04:13:13;;;;;;;38.53;26.03;;;14.90;99.90;;;;;;5113899;27;20244;-67
2021/08/05 04:16:10;;;;;;;43.10;27.20;;;14.90;99.90;;;;;;5109178;27;20202;-68
2021/08/05 04:18:39;;;;;;;37.77;25.90;;;14.80;99.90;;;;;;5094775;28;20446;-67
2021/08/05 04:21:08;;;;;;;35.53;25.03;;;14.80;99.90;;;;;;5114670;28;20268;-68
2021/08/05 04:23:37;;;;;;;37.30;25.40;;;14.80;99.90;;;;;;5111909;27;20175;-67
2021/08/05 04:26:05;;;;;;;38.03;24.47;;;14.70;99.90;;;;;;5118428;28;20183;-67
2021/08/05 04:28:34;;;;;;;38.37;25.43;;;14.70;99.90;;;;;;5115576;27;20195;-68
2021/08/05 04:31:03;;;;;;;34.87;24.03;;;14.60;99.90;;;;;;5105127;28;20407;-67
2021/08/05 04:33:39;;;;;;;41.23;26.13;;;14.60;99.90;;;;;;5097682;28;20183;-68
2021/08/05 04:36:13;;;;;;;37.67;25.17;;;14.60;99.90;;;;;;5116220;28;20176;-68
2021/08/05 04:38:43;;;;;;;38.93;25.77;;;14.60;99.90;;;;;;5114202;27;20186;-67
2021/08/05 04:41:23;;;;;;;45.10;27.43;;;14.50;99.90;;;;;;5089543;28;20210;-67
2021/08/05 04:43:52;;;;;;;42.07;26.20;;;14.50;99.90;;;;;;5119291;28;20246;-67
2021/08/05 04:46:20;;;;;;;34.00;22.63;;;14.60;99.90;;;;;;5116464;27;20198;-67
2021/08/05 04:48:49;;;;;;;35.70;23.97;;;14.50;99.90;;;;;;5106847;28;20252;-67
2021/08/05 04:51:19;;;;;;;32.73;23.27;;;14.50;99.90;;;;;;5115010;27;20423;-67
2021/08/05 04:53:48;;;;;;;35.53;23.43;;;14.50;99.90;;;;;;5112844;27;20313;-67
2021/08/05 04:56:17;;;;;;;35.90;24.50;;;14.50;99.90;;;;;;5120244;27;20361;-68
2021/08/05 04:58:51;;;;;;;33.43;22.83;;;14.50;99.90;;;;;;5108203;28;20524;-67
2021/08/05 05:01:21;;;;;;;34.00;23.93;;;14.40;99.90;;;;;;5121968;27;20423;-68
2021/08/05 05:03:50;;;;;;;40.13;26.73;;;14.40;99.90;;;;;;5113612;27;20187;-67
2021/08/05 05:06:20;;;;;;;37.00;25.50;;;14.50;99.90;;;;;;5120711;27;20199;-67
2021/08/05 05:08:48;;;;;;;32.87;23.47;;;14.50;99.90;;;;;;5107291;28;20190;-67
2021/08/05 05:11:16;;;;;;;36.57;25.27;;;14.50;99.90;;;;;;5115848;27;20223;-68
2021/08/05 05:13:44;;;;;;;31.33;22.50;;;14.50;99.90;;;;;;5110297;28;20258;-67
2021/08/05 05:16:13;;;;;;;35.50;24.27;;;14.50;99.90;;;;;;5116203;27;20419;-67
2021/08/05 05:18:41;;;;;;;35.73;25.00;;;14.60;99.90;;;;;;5105548;28;20181;-67
2021/08/05 05:21:10;;;;;;;39.13;25.37;;;14.60;99.90;;;;;;5111247;27;20188;-68
2021/08/05 05:23:39;;;;;;;39.30;26.17;;;14.70;99.90;;;;;;5109718;28;21249;-67
2021/08/05 05:26:08;;;;;;;36.97;25.50;;;14.80;99.90;;;;;;5120905;27;20183;-67
2021/08/05 05:28:37;;;;;;;39.63;26.67;;;14.80;99.90;;;;;;5108050;27;20191;-67
2021/08/05 05:31:06;;;;;;;40.20;26.37;;;14.80;99.90;;;;;;5109491;28;20187;-67
2021/08/05 05:33:35;;;;;;;41.93;27.77;;;14.90;99.90;;;;;;5109363;27;20193;-67
2021/08/05 05:36:04;;;;;;;42.60;27.60;;;15.00;99.90;;;;;;5114261;27;20179;-67
2021/08/05 05:38:32;;;;;;;44.73;29.27;;;15.10;99.90;;;;;;5117360;27;20174;-67
2021/08/05 05:41:01;;;;;;;46.30;30.50;;;15.20;99.90;;;;;;5120389;27;20205;-67
2021/08/05 05:43:30;;;;;;;48.03;30.03;;;15.30;99.90;;;;;;5108732;28;20190;-67
2021/08/05 05:45:58;;;;;;;58.70;34.60;;;15.40;99.90;;;;;;5108574;28;20179;-67
2021/08/05 05:48:26;;;;;;;53.80;33.70;;;15.50;99.90;;;;;;5117449;27;20183;-67
2021/08/05 05:50:54;;;;;;;57.10;35.63;;;15.50;99.90;;;;;;5111051;28;20179;-67
2021/08/05 05:53:23;;;;;;;51.53;31.50;;;15.70;99.90;;;;;;5106936;27;20443;-68
2021/08/05 05:55:55;;;;;;;52.37;32.20;;;15.70;99.90;;;;;;5115779;27;20189;-67
2021/08/05 05:58:24;;;;;;;52.80;33.57;;;15.90;99.90;;;;;;5123809;27;20175;-67
2021/08/05 06:00:53;;;;;;;46.20;29.57;;;16.00;99.90;;;;;;5105687;28;20334;-67
2021/08/05 06:03:21;;;;;;;38.63;26.83;;;16.10;99.90;;;;;;5105967;28;20238;-67
2021/08/05 06:05:50;;;;;;;43.83;30.10;;;16.10;99.90;;;;;;5104213;27;20179;-67
2021/08/05 06:08:19;;;;;;;46.63;30.80;;;16.20;99.90;;;;;;5131652;27;20228;-67
2021/08/05 06:10:47;;;;;;;53.70;35.60;;;16.40;99.90;;;;;;5112235;28;20207;-67
2021/08/05 06:13:16;;;;;;;56.47;35.33;;;16.40;99.90;;;;;;5123573;27;20193;-67
2021/08/05 06:15:45;;;;;;;54.17;34.87;;;16.50;99.90;;;;;;5101685;28;20176;-67
2021/08/05 06:18:13;;;;;;;59.97;38.57;;;16.60;99.90;;;;;;5129569;27;20208;-67
2021/08/05 06:20:42;;;;;;;56.27;36.10;;;16.70;99.90;;;;;;5104316;28;20180;-67
2021/08/05 06:23:10;;;;;;;60.00;37.50;;;16.80;99.90;;;;;;5120207;27;20195;-67
2021/08/05 06:25:39;;;;;;;59.83;38.77;;;16.90;99.90;;;;;;5107589;27;20224;-67
2021/08/05 06:28:07;;;;;;;59.40;38.73;;;17.00;99.90;;;;;;5109047;27;20183;-67
2021/08/05 06:30:35;;;;;;;58.33;38.80;;;17.10;99.90;;;;;;5104888;28;20342;-67
2021/08/05 06:33:05;;;;;;;56.80;37.80;;;17.40;99.90;;;;;;5115798;27;20179;-67
2021/08/05 06:35:33;;;;;;;57.93;39.00;;;17.70;99.90;;;;;;5107515;27;20196;-67
2021/08/05 06:38:01;;;;;;;63.73;41.97;;;18.00;99.90;;;;;;5139153;27;20430;-67
2021/08/05 06:40:29;;;;;;;66.23;43.40;;;18.20;99.90;;;;;;5113681;27;20167;-67
2021/08/05 06:42:59;;;;;;;59.93;40.53;;;18.20;99.90;;;;;;5111099;27;20342;-67
2021/08/05 06:45:28;;;;;;;57.63;39.90;;;18.50;99.90;;;;;;5105281;27;20172;-66
2021/08/05 06:47:56;;;;;;;59.40;39.33;;;18.60;99.90;;;;;;5108418;28;20217;-67
2021/08/05 06:50:25;;;;;;;59.90;38.73;;;18.60;99.90;;;;;;5112891;27;20210;-67
2021/08/05 06:52:54;;;;;;;52.30;36.73;;;18.80;99.90;;;;;;5110842;28;20202;-67
2021/08/05 06:55:22;;;;;;;52.03;37.13;;;19.00;99.90;;;;;;5103260;28;20175;-67
2021/08/05 06:57:50;;;;;;;53.07;36.60;;;19.20;99.90;;;;;;5108940;28;20195;-67
2021/08/05 07:00:19;;;;;;;47.80;35.00;;;19.30;99.90;;;;;;5108530;28;20207;-67
2021/08/05 07:02:47;;;;;;;44.57;32.40;;;19.40;99.90;;;;;;5118878;28;20181;-67
2021/08/05 07:05:16;;;;;;;48.57;34.67;;;19.40;99.90;;;;;;5108361;28;20195;-67
2021/08/05 07:07:46;;;;;;;50.03;33.90;;;19.70;99.90;;;;;;5104994;28;20280;-67
2021/08/05 07:10:15;;;;;;;45.07;34.33;;;19.90;99.90;;;;;;5105285;28;20207;-67
2021/08/05 07:12:43;;;;;;;44.27;32.87;;;20.00;99.90;;;;;;5107553;28;20191;-67
2021/08/05 07:15:12;;;;;;;45.67;32.87;;;20.40;99.90;;;;;;5110163;28;20380;-67
2021/08/05 07:17:44;;;;;;;45.37;33.23;;;20.30;99.90;;;;;;5109912;27;20183;-67
2021/08/05 07:20:14;;;;;;;45.00;33.40;;;20.30;99.90;;;;;;5111344;27;20187;-67
2021/08/05 07:22:42;;;;;;;40.40;30.63;;;20.50;99.90;;;;;;5112601;28;20398;-67
2021/08/05 07:25:14;;;;;;;41.87;31.57;;;20.50;99.90;;;;;;5119210;27;20187;-67
2021/08/05 07:27:44;;;;;;;45.40;32.80;;;20.50;99.90;;;;;;5111887;28;20438;-67
2021/08/05 07:30:15;;;;;;;35.77;27.50;;;20.60;99.90;;;;;;5118520;27;20233;-67
2021/08/05 07:32:44;;;;;;;45.37;30.63;;;20.50;99.90;;;;;;5114889;27;20168;-67
2021/08/05 07:35:13;;;;;;;42.03;31.60;;;20.80;99.90;;;;;;5106598;28;20506;-67
2021/08/05 07:37:41;;;;;;;38.97;29.77;;;20.70;99.90;;;;;;5116059;28;20202;-67
2021/08/05 07:40:17;;;;;;;38.33;30.93;;;20.80;99.90;;;;;;5120703;27;20188;-67
2021/08/05 07:42:46;;;;;;;44.70;31.13;;;21.20;99.90;;;;;;5111830;27;20187;-67
2021/08/05 07:45:14;;;;;;;36.93;28.60;;;21.40;99.90;;;;;;5107809;27;20391;-67
2021/08/05 07:47:42;;;;;;;46.10;31.40;;;21.60;99.90;;;;;;5103969;27;20183;-67
2021/08/05 07:50:14;;;;;;;44.97;29.93;;;21.90;99.90;;;;;;5105706;27;20490;-67
2021/08/05 07:52:42;;;;;;;43.50;28.73;;;22.10;99.90;;;;;;5107702;27;20513;-67
2021/08/05 07:55:12;;;;;;;35.37;27.17;;;21.90;99.90;;;;;;5106490;27;20195;-68
2021/08/05 07:57:42;;;;;;;34.43;26.33;;;22.30;99.90;;;;;;5108611;28;20185;-68
2021/08/05 08:00:11;;;;;;;36.63;25.40;;;22.70;99.90;;;;;;5105479;27;20273;-67
2021/08/05 08:02:40;;;;;;;32.40;23.33;;;22.50;99.90;;;;;;5108320;27;20182;-68
2021/08/05 08:05:11;;;;;;;29.80;22.87;;;22.90;99.90;;;;;;5108797;28;20215;-68
2021/08/05 08:07:40;;;;;;;33.00;24.23;;;22.90;99.90;;;;;;5118188;27;20224;-68
2021/08/05 08:10:11;;;;;;;35.60;26.20;;;23.10;99.90;;;;;;5113108;28;20255;-68
2021/08/05 08:12:40;;;;;;;29.90;20.30;;;22.80;99.90;;;;;;5104393;28;20193;-68
2021/08/05 08:15:10;;;;;;;36.60;26.10;;;22.70;99.90;;;;;;5120730;27;20179;-67
2021/08/05 08:17:41;;;;;;;26.17;20.80;;;23.00;99.90;;;;;;5108522;28;20373;-68
2021/08/05 08:20:11;;;;;;;24.63;20.20;;;23.20;99.90;;;;;;5109280;28;20177;-68
2021/08/05 08:22:40;;;;;;;28.50;21.87;;;23.00;99.90;;;;;;5116549;27;20238;-68
2021/08/05 08:25:10;;;;;;;25.70;21.17;;;22.80;99.90;;;;;;5113943;27;20178;-68
2021/08/05 08:27:40;;;;;;;24.73;19.63;;;22.60;99.90;;;;;;5104547;27;20198;-68
2021/08/05 08:30:13;;;;;;;21.00;18.30;;;23.00;99.90;;;;;;5107965;28;20198;-69
2021/08/05 08:32:43;;;;;;;25.03;20.23;;;23.00;99.90;;;;;;5105702;28;20183;-70
2021/08/05 08:35:12;;;;;;;25.63;19.60;;;24.00;99.90;;;;;;5110742;27;20188;-70
2021/08/05 08:37:40;;;;;;;24.70;20.53;;;24.30;99.90;;;;;;5107799;28;20174;-70
2021/08/05 08:40:11;;;;;;;21.27;17.77;;;24.10;99.90;;;;;;5111445;28;20397;-71
2021/08/05 08:42:40;;;;;;;25.27;19.50;;;23.80;99.90;;;;;;5107728;28;20175;-70
2021/08/05 08:45:11;;;;;;;28.80;20.10;;;23.90;99.90;;;;;;5111481;28;20320;-70
2021/08/05 08:47:42;;;;;;;22.20;17.80;;;24.10;99.90;;;;;;5104844;28;20180;-70
2021/08/05 08:50:11;;;;;;;19.40;15.45;;;24.40;99.90;;;;;;5104545;28;20208;-70
2021/08/05 08:52:44;;;;;;;14.77;12.35;;;24.40;99.90;;;;;;5105214;28;20184;-70
2021/08/05 08:55:14;;;;;;;8.23;7.05;;;24.30;99.90;;;;;;5108991;27;20187;-70
2021/08/05 08:57:43;;;;;;;10.82;7.68;;;24.60;99.90;;;;;;5103487;27;20185;-70
2021/08/05 09:00:14;;;;;;;13.47;10.27;;;24.20;99.90;;;;;;5109673;27;20241;-70
2021/08/05 09:02:46;;;;;;;16.93;12.27;;;23.60;99.90;;;;;;5112394;28;20422;-70
2021/08/05 09:05:15;;;;;;;16.30;12.17;;;23.40;99.90;;;;;;5109682;28;20417;-70
2021/08/05 09:07:45;;;;;;;20.03;14.90;;;23.20;99.90;;;;;;5106081;28;20180;-70
2021/08/05 09:10:14;;;;;;;15.47;12.23;;;23.10;99.90;;;;;;5107795;27;21497;-71
2021/08/05 09:12:44;;;;;;;16.13;12.67;;;23.30;99.90;;;;;;5107454;27;20209;-68
2021/08/05 09:15:31;;;;;;;13.30;11.73;;;23.30;99.90;;;;;;5106457;28;20292;-71
2021/08/05 09:18:00;;;;;;;12.80;11.10;;;22.90;99.90;;;;;;5109529;28;20225;-72
2021/08/05 09:20:28;;;;;;;12.90;10.40;;;22.70;99.90;;;;;;5112405;27;20171;-73
2021/08/05 09:22:57;;;;;;;15.07;10.40;;;22.80;99.90;;;;;;5110837;28;20553;-70
2021/08/05 09:25:27;;;;;;;14.20;12.20;;;23.00;99.90;;;;;;5107404;28;20185;-69
2021/08/05 09:27:58;;;;;;;14.37;11.27;;;23.20;99.90;;;;;;5111737;27;20428;-69
2021/08/05 09:30:46;;;;;;;14.17;9.60;;;23.80;99.90;;;;;;5110193;27;20187;-69
2021/08/05 09:33:15;;;;;;;10.17;8.90;;;24.00;99.90;;;;;;5104981;27;20190;-70
2021/08/05 09:35:45;;;;;;;9.73;8.33;;;23.80;99.90;;;;;;5104435;28;20188;-69
2021/08/05 09:38:33;;;;;;;10.80;8.57;;;23.60;99.90;;;;;;5107155;27;20187;-70
2021/08/05 09:41:09;;;;;;;8.97;7.97;;;23.30;99.90;;;;;;5109957;28;20216;-69
2021/08/05 09:43:38;;;;;;;7.13;6.47;;;23.40;99.90;;;;;;5110436;28;20173;-69
2021/08/05 09:46:10;;;;;;;5.63;5.23;;;23.60;99.90;;;;;;5105087;28;20299;-70
2021/08/05 09:48:42;;;;;;;6.17;5.37;;;23.90;99.90;;;;;;5111963;28;20179;-69
2021/08/05 09:51:12;;;;;;;9.53;7.03;;;23.90;99.90;;;;;;5116517;27;20249;-69
2021/08/05 09:54:01;;;;;;;8.33;6.83;;;23.80;99.90;;;;;;5105867;28;20186;-69
2021/08/05 09:56:33;;;;;;;10.97;8.47;;;23.70;99.90;;;;;;5104498;28;20205;-69
2021/08/05 09:59:06;;;;;;;9.97;7.63;;;24.00;99.90;;;;;;5108161;27;20286;-69
2021/08/05 10:01:36;;;;;;;8.80;7.07;;;24.00;99.90;;;;;;5106923;28;20189;-68
2021/08/05 10:04:25;;;;;;;13.80;9.47;;;24.50;99.90;;;;;;5102628;28;20502;-69
2021/08/05 10:06:58;;;;;;;10.13;7.97;;;24.40;99.90;;;;;;5111778;28;20311;-69
2021/08/05 10:09:26;;;;;;;9.83;7.70;;;24.40;99.90;;;;;;5105793;27;20190;-69
2021/08/05 10:12:13;;;;;;;9.97;7.93;;;24.50;99.90;;;;;;5106789;28;20197;-69
2021/08/05 10:14:42;;;;;;;8.50;7.60;;;24.40;99.90;;;;;;5107455;28;20538;-69
2021/08/05 10:17:14;;;;;;;7.93;7.20;;;24.60;99.90;;;;;;5108731;28;20179;-69
2021/08/05 10:19:45;;;;;;;9.53;6.50;;;24.60;99.90;;;;;;5110090;28;20191;-69
2021/08/05 10:22:15;;;;;;;8.10;7.07;;;24.50;99.90;;;;;;5106093;28;20176;-69
2021/08/05 10:24:45;;;;;;;9.33;7.07;;;24.60;99.90;;;;;;5110309;27;20179;-69
2021/08/05 10:27:16;;;;;;;13.70;8.47;;;24.60;99.90;;;;;;5106937;28;20186;-69
2021/08/05 10:29:46;;;;;;;10.47;8.90;;;24.50;99.90;;;;;;5100927;28;20190;-69
2021/08/05 10:32:16;;;;;;;12.27;8.63;;;24.20;99.90;;;;;;5106182;27;20498;-69
2021/08/05 10:34:45;;;;;;;11.57;9.00;;;24.20;99.90;;;;;;5102424;28;20330;-69
2021/08/05 10:37:14;;;;;;;9.23;8.07;;;24.40;99.90;;;;;;5103756;28;20194;-69
2021/08/05 10:39:43;;;;;;;10.03;7.43;;;24.40;99.90;;;;;;5105986;27;20182;-69
2021/08/05 10:42:16;;;;;;;9.47;8.20;;;24.70;99.90;;;;;;5101747;27;20177;-69
2021/08/05 10:44:46;;;;;;;9.77;7.37;;;24.90;99.90;;;;;;5105608;27;20186;-69
2021/08/05 10:47:20;;;;;;;10.37;6.43;;;24.80;99.90;;;;;;5102326;28;20190;-70
2021/08/05 10:49:50;;;;;;;9.33;6.90;;;25.20;99.90;;;;;;5102464;28;20187;-70
2021/08/05 10:52:38;;;;;;;7.43;6.03;;;25.70;99.90;;;;;;5102148;28;20203;-69
2021/08/05 10:55:21;;;;;;;6.97;6.10;;;26.10;99.90;;;;;;5102593;28;20323;-70
2021/08/05 10:58:09;;;;;;;6.10;5.60;;;26.40;99.90;;;;;;5112462;28;20225;-70
2021/08/05 11:00:53;;;;;;;6.10;5.68;;;26.60;99.90;;;;;;5102051;28;20212;-69
2021/08/05 11:03:50;;;;;;;6.00;5.55;;;26.70;99.90;;;;;;5108990;28;20175;-70
2021/08/05 11:06:33;;;;;;;5.45;5.05;;;26.50;99.90;;;;;;5103410;28;20451;-70
2021/08/05 11:09:30;;;;;;;6.70;5.30;;;26.40;99.90;;;;;;5095925;28;20180;-69
2021/08/05 11:12:39;;;;;;;6.80;6.30;;;26.20;99.90;;;;;;5109836;28;20191;-70
2021/08/05 11:15:45;;;;;;;6.20;5.70;;;26.10;99.90;;;;;;5102250;28;20411;-70
2021/08/05 11:18:24;;;;;;;4.17;3.87;;;25.80;99.90;;;;;;5102240;28;20185;-70
2021/08/05 11:21:38;;;;;;;7.47;5.70;;;25.50;99.90;;;;;;5092946;28;20166;-69
2021/08/05 11:24:07;;;;;;;4.50;4.20;;;24.90;99.90;;;;;;5100934;28;20431;-70
2021/08/05 11:26:56;;;;;;;4.43;3.83;;;25.10;99.90;;;;;;5119808;28;20186;-70
2021/08/05 11:29:29;;;;;;;4.47;4.10;;;25.80;99.90;;;;;;5107188;28;20280;-70
2021/08/05 11:31:57;;;;;;;4.22;3.90;;;26.70;99.90;;;;;;5110095;28;20327;-69
2021/08/05 11:34:53;;;;;;;4.43;4.03;;;27.00;99.90;;;;;;5106835;28;20263;-69
2021/08/05 11:37:21;;;;;;;4.03;3.73;;;26.70;99.90;;;;;;5108313;28;20179;-69
2021/08/05 11:39:52;;;;;;;3.50;3.30;;;26.20;99.90;;;;;;5119927;28;20180;-69
2021/08/05 11:42:22;;;;;;;3.37;3.07;;;25.60;99.90;;;;;;5101949;28;20176;-69
2021/08/05 11:45:06;;;;;;;4.13;3.83;;;25.10;99.90;;;;;;5107829;28;20182;-69
2021/08/05 11:47:45;;;;;;;4.70;4.20;;;24.70;99.90;;;;;;5104472;28;20449;-69
2021/08/05 11:50:20;;;;;;;5.00;4.60;;;24.60;99.90;;;;;;5104332;28;20281;-69
2021/08/05 11:53:09;;;;;;;4.83;3.63;;;24.90;99.90;;;;;;5102330;28;20222;-69
2021/08/05 11:55:40;;;;;;;4.23;3.93;;;25.20;99.90;;;;;;5101908;28;20303;-69
2021/08/05 11:58:08;;;;;;;3.50;3.30;;;25.50;99.90;;;;;;5102009;28;20218;-69
2021/08/05 12:00:40;;;;;;;3.70;3.50;;;25.80;99.90;;;;;;5101827;28;20215;-69
2021/08/05 12:03:10;;;;;;;3.53;3.30;;;25.30;99.90;;;;;;5103096;28;20178;-69
2021/08/05 12:05:41;;;;;;;3.37;3.17;;;25.00;99.90;;;;;;5114765;28;20333;-69
2021/08/05 12:08:10;;;;;;;3.87;3.57;;;24.90;99.90;;;;;;5110642;28;20325;-70
2021/08/05 12:10:41;;;;;;;4.67;3.50;;;24.80;99.90;;;;;;5104401;28;20183;-65
2021/08/05 12:13:15;;;;;;;3.70;3.40;;;24.80;99.90;;;;;;5105344;28;20205;-69
2021/08/05 12:15:45;;;;;;;3.77;3.57;;;24.60;99.90;;;;;;5104977;28;20448;-69
2021/08/05 12:18:16;;;;;;;3.93;3.60;;;24.20;99.90;;;;;;5105372;28;20232;-69
2021/08/05 12:20:46;;;;;;;6.00;3.43;;;24.10;99.90;;;;;;5108748;27;20190;-69
2021/08/05 12:23:19;;;;;;;3.90;3.60;;;24.00;99.90;;;;;;5105242;28;20373;-69
2021/08/05 12:25:51;;;;;;;3.67;3.47;;;23.70;99.90;;;;;;5119703;28;20215;-69
2021/08/05 12:28:21;;;;;;;3.50;3.30;;;24.00;99.90;;;;;;5117582;27;20203;-69
2021/08/05 12:30:51;;;;;;;5.03;3.40;;;24.50;99.90;;;;;;5115949;27;20217;-69
2021/08/05 12:33:23;;;;;;;3.73;3.53;;;25.10;99.90;;;;;;5130361;27;20218;-69
2021/08/05 12:36:06;;;;;;;3.20;2.90;;;25.40;99.90;;;;;;5108263;28;20178;-69
2021/08/05 12:38:43;;;;;;;2.60;2.50;;;25.50;99.90;;;;;;5109158;27;20444;-69
2021/08/05 12:41:17;;;;;;;2.87;2.50;;;25.60;99.90;;;;;;5103466;28;20183;-69
2021/08/05 12:43:50;;;;;;;5.40;3.00;;;25.80;99.90;;;;;;5106350;27;20232;-68
2021/08/05 12:46:19;;;;;;;2.80;2.63;;;26.00;99.90;;;;;;5105820;28;20178;-69
2021/08/05 12:48:52;;;;;;;2.60;2.40;;;25.80;99.90;;;;;;5104585;28;20174;-69
2021/08/05 12:51:22;;;;;;;2.47;2.37;;;25.70;99.90;;;;;;5105144;27;20464;-69
2021/08/05 12:53:50;;;;;;;2.57;2.43;;;25.60;99.90;;;;;;5108464;28;20251;-69
2021/08/05 12:56:40;;;;;;;2.90;2.70;;;25.40;99.90;;;;;;5104268;28;20192;-69